Memorial Field
KHOT : now visible

Airfield :











YOU CAN JOIN US ON...

 
LOGIN :

Register | Disclaimer

   EN    FR    IT 

 









Legend :    VFR   Marginal VFR   IFR   Intensive IFR   Very Intensive IFR
Visi :
Ceiling :
>= 8 km
>= 3000ft
5 to 8 km
1000 to 3000 ft
1500m to 5 km
500 to 1000 ft
800 to 1500m
200 to 500 ft
< 800m
< 200 ft
Symbols :   Thunderstorms  Fog  Heavy snow  Heavy precipitations  Wind > 20 kt






- Airport Elevation : 540 ft
- IATA code : HOT


KHOT - Memorial Field

CURRENT METAR :
  • 200253Z AUTO 00000KT 10SM CLR 12/06 A2999 RMK AO2 SLP152 T01220061 53016

EXPIRED METARs :
  • 200153Z AUTO 00000KT 10SM CLR 16/06 A2996 RMK AO2 SLP143 T01610056
  • 200053Z AUTO 17003KT 10SM CLR 19/04 A2994 RMK AO2 SLP138 T01890044

TAF KHOT
Valid from the 20 at 00:00 until the 21 at 00:00 UTC


192326Z 2000/2024 23005KT P6SM SKC
FM200200 VRB05KT P6SM SCT200
FM201500 24006KT P6SM SCT100
FM201900 31011G20KT P6SM SCT050 BKN100
FM202100 33011G18KT P6SM SCT035 OVC050
KZME FIR / North America



MET'MAP, your aeronautical weather chart ! - Copyright ORBIFLY December 2007 - Disclaimer

ORBIFLY MET'MAP TEAM :

Programming & Development : Alexandra Zaïnal
Concept & original design : Baudouin d'Aumeries
Assistance for programming : Marc-Olivier Méhu
Technical & hardware support : Manuel Goepfert

Contact : metmap@orbifly.com




SOURCES & CREDITS :

   NOAA       Earth
Advisory